Time;durP1;ratioP1;P1;durP2;ratioP2;P2;SDS_P1;SDS_P2;PMS_P1;PMS_P2;Temp;Humidity;BMP_temperature;BMP_pressure;BME280_temperature;BME280_humidity;BME280_pressure;Samples;Min_cycle;Max_cycle;Signal;HPM_P1;HPM_P2
2022/05/22 00:02:15;;;;;;;3.00;1.00;;;16.30;99.90;;;;;;5109633;28;20402;-85
2022/05/22 00:04:42;;;;;;;2.83;0.85;;;16.30;99.90;;;;;;5109933;28;20762;-86
2022/05/22 00:07:09;;;;;;;3.97;1.00;;;16.30;99.90;;;;;;5109890;28;20379;-86
2022/05/22 00:09:37;;;;;;;3.75;1.05;;;16.40;99.90;;;;;;5110521;28;20367;-86
2022/05/22 00:12:06;;;;;;;2.30;0.90;;;16.40;99.90;;;;;;5110023;28;20917;-86
2022/05/22 00:14:33;;;;;;;3.70;1.10;;;16.70;99.90;;;;;;5118604;28;20410;-84
2022/05/22 00:17:00;;;;;;;4.85;1.20;;;16.80;99.90;;;;;;5126715;28;20387;-86
2022/05/22 00:19:31;;;;;;;7.32;0.90;;;16.90;99.90;;;;;;5125760;28;20386;-85
2022/05/22 00:21:59;;;;;;;4.60;1.10;;;17.00;99.90;;;;;;5115259;28;20712;-87
2022/05/22 00:24:30;;;;;;;4.70;1.00;;;17.20;99.90;;;;;;5109970;28;20605;-87
2022/05/22 00:26:57;;;;;;;3.85;0.88;;;17.30;99.90;;;;;;5109542;28;20354;-87
2022/05/22 00:29:24;;;;;;;3.10;0.80;;;17.50;99.90;;;;;;5109505;28;20438;-87
2022/05/22 00:31:52;;;;;;;3.45;1.00;;;17.60;99.90;;;;;;5109199;28;20385;-87
2022/05/22 00:34:19;;;;;;;2.72;0.80;;;17.70;99.90;;;;;;5108756;28;20390;-86
2022/05/22 00:36:46;;;;;;;3.05;1.05;;;17.80;99.90;;;;;;5108859;28;20478;-87
2022/05/22 00:39:13;;;;;;;3.10;1.30;;;17.90;99.90;;;;;;5109302;28;20454;-88
2022/05/22 00:41:41;;;;;;;4.53;1.10;;;18.10;99.90;;;;;;5109081;28;20388;-87
2022/05/22 00:44:08;;;;;;;4.22;0.90;;;18.20;99.90;;;;;;5108769;28;20383;-87
2022/05/22 00:46:36;;;;;;;4.63;0.90;;;18.30;99.90;;;;;;5108497;28;20366;-88
2022/05/22 00:49:22;;;;;;;3.78;1.00;;;18.30;99.90;;;;;;5108540;28;20374;-87
2022/05/22 00:52:02;;;;;;;3.80;1.00;;;18.50;99.90;;;;;;5108825;28;20696;-87
2022/05/22 00:54:45;;;;;;;3.53;1.00;;;18.70;99.90;;;;;;5107429;28;20730;-87
2022/05/22 00:57:20;;;;;;;4.18;0.90;;;18.80;99.90;;;;;;5108181;28;20405;-87
2022/05/22 01:00:07;;;;;;;5.03;1.05;;;18.90;99.90;;;;;;5108420;28;20362;-87
2022/05/22 01:05:21;;;;;;;2.50;0.90;;;19.00;99.90;;;;;;5108205;28;20389;-87
2022/05/22 01:07:48;;;;;;;5.47;1.05;;;19.00;99.90;;;;;;5108123;28;20387;-87
2022/05/22 01:10:15;;;;;;;5.93;1.20;;;18.90;99.90;;;;;;5108103;28;20373;-87
2022/05/22 01:12:44;;;;;;;4.80;1.20;;;18.90;99.90;;;;;;5107894;28;20854;-88
2022/05/22 01:15:13;;;;;;;5.97;1.50;;;18.90;99.90;;;;;;5108009;28;20385;-87
2022/05/22 01:17:45;;;;;;;4.00;1.10;;;18.90;99.90;;;;;;5107881;28;20418;-87
2022/05/22 01:20:13;;;;;;;6.65;2.53;;;18.80;99.90;;;;;;5095006;28;20416;-87
2022/05/22 01:22:41;;;;;;;4.50;1.92;;;18.70;99.90;;;;;;5076563;28;20858;-86
2022/05/22 01:25:10;;;;;;;4.90;1.70;;;18.60;99.90;;;;;;5086914;28;20412;-88
2022/05/22 01:27:39;;;;;;;3.50;1.60;;;18.60;99.90;;;;;;5105226;28;20453;-87
2022/05/22 01:30:19;;;;;;;8.15;2.28;;;18.60;99.90;;;;;;5071818;28;20798;-88
2022/05/22 01:32:48;;;;;;;5.30;1.40;;;18.50;99.90;;;;;;5080197;28;20395;-88
2022/05/22 01:35:19;;;;;;;5.55;2.60;;;18.50;99.90;;;;;;5087343;28;20411;-88
2022/05/22 01:37:48;;;;;;;5.93;1.60;;;18.40;99.90;;;;;;5082450;28;20512;-88
2022/05/22 01:40:16;;;;;;;3.67;1.40;;;18.40;99.90;;;;;;5067252;28;20380;-85
2022/05/22 01:42:44;;;;;;;6.20;1.83;;;18.50;99.90;;;;;;5071289;28;20398;-85
2022/05/22 01:45:14;;;;;;;4.22;1.35;;;18.60;99.90;;;;;;5086278;28;20380;-87
2022/05/22 01:47:41;;;;;;;4.40;1.35;;;18.70;99.90;;;;;;5086449;28;20385;-84
2022/05/22 01:50:09;;;;;;;3.90;1.30;;;18.80;99.90;;;;;;5087612;28;20388;-85
2022/05/22 01:52:36;;;;;;;4.00;0.82;;;18.90;99.90;;;;;;5087242;28;20883;-86
2022/05/22 01:55:05;;;;;;;3.15;0.90;;;19.00;99.90;;;;;;5087246;28;20748;-85
2022/05/22 01:57:32;;;;;;;3.92;0.90;;;19.00;99.90;;;;;;5090885;28;20473;-88
2022/05/22 01:59:59;;;;;;;4.35;1.08;;;19.00;99.90;;;;;;5087257;28;20412;-87
2022/05/22 02:02:27;;;;;;;5.10;1.23;;;19.00;99.90;;;;;;5090453;28;20429;-85
2022/05/22 02:04:54;;;;;;;2.65;1.15;;;19.00;99.90;;;;;;5087707;28;20426;-87
2022/05/22 02:10:06;;;;;;;2.20;0.70;;;19.20;99.90;;;;;;5087508;28;20440;-87
2022/05/22 02:12:33;;;;;;;5.10;1.00;;;19.20;99.90;;;;;;5087075;28;20387;-88
2022/05/22 02:15:00;;;;;;;3.20;0.80;;;19.20;99.90;;;;;;5087714;28;20375;-88
2022/05/22 02:17:28;;;;;;;3.58;0.95;;;19.30;99.90;;;;;;5093390;28;20384;-86
2022/05/22 02:19:57;;;;;;;3.83;1.05;;;19.10;99.90;;;;;;5080938;28;20471;-87
2022/05/22 02:22:24;;;;;;;5.18;1.10;;;19.00;99.90;;;;;;5099310;28;20860;-87
2022/05/22 02:24:54;;;;;;;4.05;0.93;;;18.70;99.90;;;;;;5090479;28;20414;-88
2022/05/22 02:27:22;;;;;;;5.57;0.90;;;18.60;99.90;;;;;;5086948;28;20371;-87
2022/05/22 02:29:49;;;;;;;4.70;1.10;;;18.40;99.90;;;;;;5086929;28;20372;-85
2022/05/22 02:32:16;;;;;;;4.07;1.30;;;18.40;99.90;;;;;;5086593;28;20403;-88
2022/05/22 02:34:43;;;;;;;3.05;1.00;;;18.30;99.90;;;;;;5086669;28;20392;-88
2022/05/22 02:37:10;;;;;;;4.07;1.80;;;18.30;99.90;;;;;;5086762;28;20408;-87
2022/05/22 02:39:37;;;;;;;5.00;1.98;;;18.20;99.90;;;;;;5086931;28;20447;-86
2022/05/22 02:42:06;;;;;;;4.30;1.73;;;18.20;99.90;;;;;;5088269;28;20459;-88
2022/05/22 02:44:33;;;;;;;4.20;1.70;;;18.10;99.90;;;;;;5091670;28;20399;-89
2022/05/22 02:47:00;;;;;;;3.92;1.08;;;18.00;99.90;;;;;;5090718;28;20368;-87
2022/05/22 02:49:27;;;;;;;5.38;2.38;;;18.00;99.90;;;;;;5090677;28;20421;-87
2022/05/22 02:51:54;;;;;;;4.10;1.00;;;17.80;99.90;;;;;;5090672;28;20377;-87
2022/05/22 02:54:24;;;;;;;5.30;2.35;;;17.80;99.90;;;;;;5090780;28;20384;-87
2022/05/22 02:56:51;;;;;;;5.10;1.25;;;17.70;99.90;;;;;;5090664;28;20479;-87
2022/05/22 02:59:18;;;;;;;4.28;1.60;;;17.60;99.90;;;;;;5086448;28;20394;-85
2022/05/22 03:01:45;;;;;;;6.82;2.40;;;17.50;99.90;;;;;;5085678;28;20531;-88
2022/05/22 03:04:12;;;;;;;4.72;1.92;;;17.50;99.90;;;;;;5084028;28;20396;-86
2022/05/22 03:06:39;;;;;;;5.38;1.60;;;17.40;99.90;;;;;;5075427;28;20369;-84
2022/05/22 03:09:16;;;;;;;4.22;1.50;;;17.40;99.90;;;;;;5086406;28;20403;-87
2022/05/22 03:11:43;;;;;;;4.80;1.60;;;17.40;99.90;;;;;;5089107;28;20368;-86
2022/05/22 03:14:11;;;;;;;4.15;1.73;;;17.30;99.90;;;;;;5071812;28;20391;-89
2022/05/22 03:16:38;;;;;;;5.82;1.83;;;17.30;99.90;;;;;;5089846;28;20385;-86
2022/05/22 03:19:05;;;;;;;5.38;1.13;;;17.30;99.90;;;;;;5090239;28;20381;-86
2022/05/22 03:21:32;;;;;;;4.78;1.20;;;17.30;99.90;;;;;;5089863;28;20373;-85
2022/05/22 03:23:59;;;;;;;4.65;0.90;;;17.40;99.90;;;;;;5089794;28;20717;-87
2022/05/22 03:26:26;;;;;;;4.60;1.00;;;17.40;99.90;;;;;;5089940;28;20936;-86
2022/05/22 03:28:53;;;;;;;3.58;0.90;;;17.40;99.90;;;;;;5089793;28;20380;-86
2022/05/22 03:31:20;;;;;;;3.53;0.80;;;17.40;99.90;;;;;;5089527;28;20417;-85
2022/05/22 03:33:47;;;;;;;3.55;0.90;;;17.40;99.90;;;;;;5089586;28;20384;-86
2022/05/22 03:36:14;;;;;;;3.97;0.80;;;17.40;99.90;;;;;;5089540;28;20392;-85
2022/05/22 03:38:41;;;;;;;4.28;1.00;;;17.40;99.90;;;;;;5088218;28;20408;-86
2022/05/22 03:41:08;;;;;;;3.63;0.82;;;17.40;99.90;;;;;;5089487;28;20392;-88
2022/05/22 03:43:35;;;;;;;4.38;0.98;;;17.40;99.90;;;;;;5089440;28;20383;-87
2022/05/22 03:46:03;;;;;;;4.37;0.90;;;17.50;99.90;;;;;;5087839;28;20400;-87
2022/05/22 03:48:30;;;;;;;3.80;0.90;;;17.60;99.90;;;;;;5089203;28;20371;-88
2022/05/22 03:50:56;;;;;;;3.08;0.80;;;17.60;99.90;;;;;;5089255;28;20379;-85
2022/05/22 03:53:23;;;;;;;2.80;0.98;;;17.60;99.90;;;;;;5088252;28;20379;-87
2022/05/22 03:55:50;;;;;;;5.07;0.95;;;17.70;99.90;;;;;;5089217;28;20422;-87
2022/05/22 03:58:18;;;;;;;5.40;1.10;;;17.80;99.90;;;;;;5089110;28;20471;-87
2022/05/22 04:00:46;;;;;;;4.05;1.05;;;17.80;99.90;;;;;;5089358;28;20848;-85
2022/05/22 04:03:13;;;;;;;4.33;1.20;;;17.80;99.90;;;;;;5089178;28;20854;-88
2022/05/22 04:05:40;;;;;;;5.57;1.33;;;17.90;99.90;;;;;;5089213;28;20403;-87
2022/05/22 04:08:07;;;;;;;5.07;1.40;;;17.80;99.90;;;;;;5089339;28;20443;-87
2022/05/22 04:10:36;;;;;;;4.28;1.30;;;17.80;99.90;;;;;;5089094;28;20800;-89
2022/05/22 04:13:03;;;;;;;4.18;1.10;;;17.80;99.90;;;;;;5088901;28;20442;-88
2022/05/22 04:15:30;;;;;;;4.38;0.93;;;17.80;99.90;;;;;;5088827;28;20380;-87
2022/05/22 04:17:57;;;;;;;5.45;1.20;;;17.90;99.90;;;;;;5088042;28;20493;-87
2022/05/22 04:20:25;;;;;;;6.30;1.40;;;17.90;99.90;;;;;;5088887;28;20373;-88
2022/05/22 04:25:37;;;;;;;4.90;1.00;;;17.80;99.90;;;;;;5088631;28;20419;-86
2022/05/22 04:28:04;;;;;;;4.03;1.38;;;17.90;99.90;;;;;;5088889;28;20376;-88
2022/05/22 04:30:31;;;;;;;4.85;1.20;;;17.90;99.90;;;;;;5088836;28;20400;-86
2022/05/22 04:32:58;;;;;;;6.15;1.10;;;17.90;99.90;;;;;;5088859;28;20388;-86
2022/05/22 04:35:25;;;;;;;3.92;0.90;;;17.90;99.90;;;;;;5088299;28;20400;-86
2022/05/22 04:37:52;;;;;;;4.80;1.00;;;17.90;99.90;;;;;;5088977;28;20815;-86
2022/05/22 04:40:19;;;;;;;4.97;1.13;;;18.00;99.90;;;;;;5088601;28;20916;-87
2022/05/22 04:42:46;;;;;;;4.65;1.08;;;18.00;99.90;;;;;;5087913;28;20376;-88
2022/05/22 04:45:13;;;;;;;4.15;1.00;;;18.00;99.90;;;;;;5088266;28;20867;-87
2022/05/22 04:47:42;;;;;;;3.35;1.00;;;18.00;99.90;;;;;;5086812;28;20384;-87
2022/05/22 04:50:11;;;;;;;4.25;0.90;;;17.90;99.90;;;;;;5088165;28;20697;-86
2022/05/22 04:52:38;;;;;;;6.80;1.20;;;17.90;99.90;;;;;;5087917;28;20763;-86
2022/05/22 04:55:07;;;;;;;3.40;0.90;;;17.80;99.90;;;;;;5088083;28;20365;-87
2022/05/22 04:57:35;;;;;;;4.65;0.80;;;17.70;99.90;;;;;;5087802;28;20399;-85
2022/05/22 05:00:05;;;;;;;4.30;1.00;;;17.70;99.90;;;;;;5087757;28;20385;-86
2022/05/22 05:02:32;;;;;;;2.63;0.80;;;17.70;99.90;;;;;;5087659;28;20451;-87
2022/05/22 05:04:59;;;;;;;4.15;0.90;;;17.60;99.90;;;;;;5087550;28;20391;-86
2022/05/22 05:07:26;;;;;;;3.55;0.80;;;17.60;99.90;;;;;;5087858;28;20368;-86
2022/05/22 05:09:53;;;;;;;5.28;1.00;;;17.50;99.90;;;;;;5087856;28;20387;-87
2022/05/22 05:12:20;;;;;;;3.72;1.00;;;17.50;99.90;;;;;;5087745;28;20376;-87
2022/05/22 05:14:47;;;;;;;4.35;1.00;;;17.50;99.90;;;;;;5086519;28;20385;-87
2022/05/22 05:17:17;;;;;;;6.10;0.98;;;17.50;99.90;;;;;;5087469;28;20426;-87
2022/05/22 05:19:45;;;;;;;4.05;1.13;;;17.40;99.90;;;;;;5087456;28;20399;-87
2022/05/22 05:22:12;;;;;;;4.28;1.13;;;17.40;99.90;;;;;;5087483;28;20900;-86
2022/05/22 05:24:39;;;;;;;4.03;1.10;;;17.30;99.90;;;;;;5087481;28;20429;-87
2022/05/22 05:27:07;;;;;;;3.15;1.30;;;17.30;99.90;;;;;;5087353;28;20379;-88
2022/05/22 05:29:33;;;;;;;5.57;1.10;;;17.30;99.90;;;;;;5087626;28;20373;-87
2022/05/22 05:32:00;;;;;;;2.88;1.00;;;17.30;99.90;;;;;;5087084;28;20378;-86
2022/05/22 05:34:27;;;;;;;2.75;1.13;;;17.20;99.90;;;;;;5086949;28;20400;-86
2022/05/22 05:36:54;;;;;;;5.03;1.10;;;17.20;99.90;;;;;;5087094;28;20388;-86
2022/05/22 05:39:21;;;;;;;2.80;1.00;;;17.30;99.90;;;;;;5087436;28;20573;-87
2022/05/22 05:41:48;;;;;;;2.78;0.95;;;17.30;99.90;;;;;;5087997;28;20447;-87
2022/05/22 05:44:15;;;;;;;3.28;0.90;;;17.30;99.90;;;;;;5085795;28;20387;-86
2022/05/22 05:46:46;;;;;;;2.53;0.90;;;17.40;99.90;;;;;;5085561;28;20429;-88
2022/05/22 05:49:13;;;;;;;3.53;1.00;;;17.40;99.90;;;;;;5087677;28;20415;-88
2022/05/22 05:51:40;;;;;;;3.60;0.90;;;17.40;99.90;;;;;;5087280;28;20383;-86
2022/05/22 05:54:07;;;;;;;4.03;1.75;;;17.30;99.90;;;;;;5087274;28;20467;-87
2022/05/22 05:56:41;;;;;;;6.70;3.00;;;17.30;99.90;;;;;;5087515;28;20384;-87
2022/05/22 05:59:08;;;;;;;6.63;3.10;;;17.30;99.90;;;;;;5087120;28;20394;-88
2022/05/22 06:01:36;;;;;;;4.90;1.52;;;17.20;99.90;;;;;;5085547;28;20463;-87
2022/05/22 06:04:04;;;;;;;4.70;1.38;;;17.20;99.90;;;;;;5089776;28;20378;-87
2022/05/22 06:06:34;;;;;;;3.00;1.00;;;17.20;99.90;;;;;;5095775;28;20380;-87
2022/05/22 06:09:02;;;;;;;3.80;1.10;;;15.90;99.90;;;;;;5090243;28;20412;-87
2022/05/22 06:11:29;;;;;;;2.90;0.95;;;17.10;99.90;;;;;;5093572;28;20369;-88
2022/05/22 06:13:56;;;;;;;5.25;1.55;;;17.00;99.90;;;;;;5090461;28;20364;-88
2022/05/22 06:16:24;;;;;;;3.13;1.23;;;17.00;99.90;;;;;;5091360;28;20380;-88
2022/05/22 06:18:51;;;;;;;4.25;1.40;;;16.90;99.90;;;;;;5095749;28;20400;-88
2022/05/22 06:21:19;;;;;;;5.55;1.27;;;16.80;99.90;;;;;;5091607;28;20379;-89
2022/05/22 06:23:46;;;;;;;5.33;2.57;;;16.80;99.90;;;;;;5091234;28;20380;-86
2022/05/22 06:26:17;;;;;;;6.80;3.60;;;16.70;99.90;;;;;;5091162;28;20437;-87
2022/05/22 06:28:45;;;;;;;4.15;1.35;;;16.70;99.90;;;;;;5091403;28;20357;-86
2022/05/22 06:31:13;;;;;;;3.40;1.70;;;16.60;99.90;;;;;;5091355;28;20393;-87
2022/05/22 06:33:41;;;;;;;4.63;1.40;;;16.50;99.90;;;;;;5090783;28;20371;-86
2022/05/22 06:36:12;;;;;;;4.95;1.27;;;16.50;99.90;;;;;;5090957;28;20383;-87
2022/05/22 06:41:25;;;;;;;4.30;1.20;;;16.40;99.90;;;;;;5091013;28;20456;-87
2022/05/22 06:43:53;;;;;;;3.08;1.02;;;16.40;99.90;;;;;;5090724;28;20380;-87
2022/05/22 06:46:26;;;;;;;3.33;1.02;;;16.40;99.90;;;;;;5090519;28;20453;-87
2022/05/22 06:48:53;;;;;;;3.95;1.00;;;16.30;99.90;;;;;;5090600;28;20361;-87
2022/05/22 06:51:20;;;;;;;2.65;0.93;;;16.30;99.90;;;;;;5090690;28;20429;-86
2022/05/22 06:53:47;;;;;;;2.65;0.98;;;16.30;99.90;;;;;;5090649;28;20364;-87
2022/05/22 06:56:14;;;;;;;4.23;2.13;;;16.30;99.90;;;;;;5090411;28;20380;-87
2022/05/22 06:58:41;;;;;;;5.50;3.00;;;16.20;99.90;;;;;;5090485;28;21301;-87
2022/05/22 07:01:08;;;;;;;3.00;1.90;;;16.20;99.90;;;;;;5090404;28;20395;-88
2022/05/22 07:03:36;;;;;;;3.58;1.35;;;16.20;99.90;;;;;;5090102;28;20408;-87
2022/05/22 07:06:03;;;;;;;3.23;1.10;;;16.10;99.90;;;;;;5090152;28;20383;-87
2022/05/22 07:08:30;;;;;;;2.20;1.00;;;16.00;99.90;;;;;;5090395;28;20371;-88
2022/05/22 07:13:42;;;;;;;1.83;0.98;;;15.80;99.90;;;;;;5090639;28;20395;-86
2022/05/22 07:16:09;;;;;;;3.45;1.02;;;15.60;99.90;;;;;;5091460;28;20381;-87
2022/05/22 07:18:36;;;;;;;2.22;0.90;;;15.60;99.90;;;;;;5091949;28;21250;-87
2022/05/22 07:21:03;;;;;;;2.90;1.05;;;15.60;99.90;;;;;;5090572;28;20368;-88
2022/05/22 07:23:30;;;;;;;3.25;0.98;;;15.60;99.90;;;;;;5090013;28;20783;-88
2022/05/22 07:25:57;;;;;;;1.85;1.10;;;15.50;99.90;;;;;;5089685;28;20844;-88
2022/05/22 07:28:24;;;;;;;1.70;1.00;;;15.50;99.90;;;;;;5088592;28;20795;-89
2022/05/22 07:30:51;;;;;;;1.27;0.90;;;15.40;99.90;;;;;;5090252;28;20736;-88
2022/05/22 07:33:18;;;;;;;3.53;1.10;;;15.40;99.90;;;;;;5088981;28;20397;-88
2022/05/22 07:35:59;;;;;;;1.80;1.00;;;15.40;99.90;;;;;;5090714;28;20392;-88
2022/05/22 07:38:26;;;;;;;4.63;0.90;;;15.30;99.90;;;;;;5090568;28;20400;-86
2022/05/22 07:40:54;;;;;;;1.90;0.80;;;15.30;99.90;;;;;;5091377;28;20961;-87
2022/05/22 07:43:21;;;;;;;1.35;0.80;;;15.30;99.90;;;;;;5090197;28;20373;-86
2022/05/22 07:45:49;;;;;;;1.60;0.80;;;15.30;99.90;;;;;;5089743;28;20864;-87
2022/05/22 07:48:19;;;;;;;2.80;0.90;;;15.30;99.90;;;;;;5090297;28;20933;-87
2022/05/22 07:50:46;;;;;;;2.13;0.80;;;15.40;99.90;;;;;;5090357;28;20365;-87
2022/05/22 07:53:13;;;;;;;2.15;1.00;;;15.20;99.90;;;;;;5089767;28;20468;-86
2022/05/22 07:55:40;;;;;;;1.75;1.00;;;15.10;99.90;;;;;;5091377;28;20430;-87
2022/05/22 07:58:07;;;;;;;1.70;0.90;;;15.10;99.90;;;;;;5091063;28;20396;-87
2022/05/22 08:00:34;;;;;;;2.70;0.80;;;15.10;99.90;;;;;;5090700;28;20463;-87
2022/05/22 08:03:11;;;;;;;2.28;1.00;;;15.10;99.90;;;;;;5090593;28;20668;-86
2022/05/22 08:05:38;;;;;;;1.90;0.80;;;15.10;99.90;;;;;;5092677;28;20393;-86
2022/05/22 08:08:06;;;;;;;1.58;1.00;;;15.10;99.90;;;;;;5089552;28;20463;-87
2022/05/22 08:10:36;;;;;;;1.70;0.82;;;15.10;99.90;;;;;;5089063;28;20456;-87
2022/05/22 08:13:05;;;;;;;2.40;1.25;;;15.00;99.90;;;;;;5089307;28;20376;-87
2022/05/22 08:15:34;;;;;;;2.42;1.50;;;14.90;99.90;;;;;;5089333;28;20372;-87
2022/05/22 08:18:02;;;;;;;2.35;1.42;;;14.90;99.90;;;;;;5089103;28;20388;-86
2022/05/22 08:20:33;;;;;;;3.15;2.10;;;14.90;99.90;;;;;;5089011;28;20369;-86
2022/05/22 08:23:03;;;;;;;3.03;1.93;;;14.80;99.90;;;;;;5088822;28;20396;-87
2022/05/22 08:25:31;;;;;;;10.03;7.23;;;14.80;99.90;;;;;;5088658;28;21003;-87
2022/05/22 08:27:59;;;;;;;8.00;5.22;;;14.80;99.90;;;;;;5088896;28;20403;-88
2022/05/22 08:30:29;;;;;;;2.87;1.67;;;14.70;99.90;;;;;;5088658;28;20372;-87
2022/05/22 08:32:56;;;;;;;3.95;3.03;;;14.70;99.90;;;;;;5088728;28;20372;-87
2022/05/22 08:35:31;;;;;;;3.55;2.30;;;14.70;99.90;;;;;;5088434;28;20392;-88
2022/05/22 08:37:59;;;;;;;2.20;1.30;;;14.70;99.90;;;;;;5090529;28;20407;-87
2022/05/22 08:40:33;;;;;;;3.63;1.38;;;14.70;99.90;;;;;;5090371;28;20409;-87
2022/05/22 08:43:24;;;;;;;3.03;1.27;;;14.60;99.90;;;;;;5089588;28;20473;-88
2022/05/22 08:46:02;;;;;;;3.25;1.13;;;14.60;99.90;;;;;;5091953;28;20380;-87
2022/05/22 08:48:48;;;;;;;3.13;1.10;;;14.60;99.90;;;;;;5090557;28;20368;-87
2022/05/22 08:51:45;;;;;;;4.13;1.30;;;14.50;99.90;;;;;;5088926;28;20388;-87
2022/05/22 08:54:27;;;;;;;4.65;1.40;;;14.50;99.90;;;;;;5091878;28;20387;-86
2022/05/22 08:59:49;;;;;;;8.10;1.70;;;14.40;99.90;;;;;;5091062;28;20899;-87
2022/05/22 09:02:22;;;;;;;5.35;1.40;;;14.40;99.90;;;;;;5089813;28;20405;-86
2022/05/22 09:05:05;;;;;;;4.72;1.40;;;14.50;99.90;;;;;;5086596;28;20412;-87
2022/05/22 09:07:41;;;;;;;4.18;1.30;;;14.40;99.90;;;;;;5088342;28;20381;-86
2022/05/22 09:10:24;;;;;;;3.65;1.20;;;14.40;99.90;;;;;;5088367;28;20367;-87
2022/05/22 09:13:19;;;;;;;5.27;1.40;;;14.40;99.90;;;;;;5088295;28;20377;-86
2022/05/22 09:16:10;;;;;;;3.25;1.45;;;14.40;99.90;;;;;;5087737;28;20372;-86
2022/05/22 09:18:46;;;;;;;4.05;1.85;;;14.40;99.90;;;;;;5081934;28;20430;-87
2022/05/22 09:21:24;;;;;;;4.90;2.50;;;14.40;99.90;;;;;;5087681;28;20397;-86
2022/05/22 09:24:17;;;;;;;5.65;3.35;;;14.50;99.90;;;;;;5088147;28;20472;-86
2022/05/22 09:27:10;;;;;;;5.82;4.10;;;14.50;99.90;;;;;;5087432;28;20451;-86
2022/05/22 09:29:58;;;;;;;5.22;2.85;;;14.50;99.90;;;;;;5086291;28;20975;-87
2022/05/22 09:33:00;;;;;;;5.25;2.70;;;14.50;99.90;;;;;;5087428;28;20412;-87
2022/05/22 09:35:47;;;;;;;3.42;2.20;;;14.50;99.90;;;;;;5087429;28;20479;-86
2022/05/22 09:38:48;;;;;;;3.67;2.35;;;14.40;99.90;;;;;;5087558;28;21260;-86
2022/05/22 09:41:15;;;;;;;4.35;3.50;;;14.40;99.90;;;;;;5086435;28;20380;-86
2022/05/22 09:44:01;;;;;;;5.07;3.30;;;14.30;99.90;;;;;;5087695;28;20382;-86
2022/05/22 09:46:41;;;;;;;6.53;4.10;;;14.30;99.90;;;;;;5085806;28;20377;-86
2022/05/22 09:49:29;;;;;;;4.22;2.95;;;14.30;99.90;;;;;;5087409;28;20770;-87
2022/05/22 09:52:12;;;;;;;4.28;3.10;;;14.20;99.90;;;;;;5086324;28;20922;-85
2022/05/22 09:55:00;;;;;;;3.70;2.30;;;14.20;99.90;;;;;;5085522;28;20383;-87
2022/05/22 09:58:00;;;;;;;6.97;2.78;;;14.10;99.90;;;;;;5087481;28;20769;-87
2022/05/22 10:00:47;;;;;;;4.13;2.60;;;14.10;99.90;;;;;;5045009;28;20422;-86
2022/05/22 10:03:35;;;;;;;3.78;2.70;;;14.10;99.90;;;;;;5044576;28;20384;-87
2022/05/22 10:06:39;;;;;;;5.35;2.90;;;14.10;99.90;;;;;;5044607;28;20376;-87
2022/05/22 10:09:46;;;;;;;4.20;2.80;;;14.20;99.90;;;;;;5004829;28;20390;-87
2022/05/22 10:12:13;;;;;;;5.47;2.78;;;14.20;99.90;;;;;;5004730;28;20458;-87
2022/05/22 10:14:45;;;;;;;5.78;2.88;;;14.20;99.90;;;;;;5004885;28;20380;-87
2022/05/22 10:17:24;;;;;;;3.70;2.40;;;14.20;99.90;;;;;;5004805;28;20403;-87
2022/05/22 10:20:15;;;;;;;3.30;2.20;;;14.20;99.90;;;;;;5004808;28;20399;-87
2022/05/22 10:23:10;;;;;;;4.40;2.30;;;14.20;99.90;;;;;;5004910;28;21018;-87
2022/05/22 10:25:52;;;;;;;3.22;2.08;;;14.20;99.90;;;;;;5004921;28;20941;-87
2022/05/22 10:28:29;;;;;;;3.25;2.10;;;14.20;99.90;;;;;;5004789;28;20397;-87
2022/05/22 10:31:19;;;;;;;4.18;2.10;;;14.20;99.90;;;;;;5005044;28;20394;-88
2022/05/22 10:34:19;;;;;;;4.95;1.95;;;14.20;99.90;;;;;;4998552;28;20429;-87
2022/05/22 10:36:51;;;;;;;4.88;2.00;;;14.20;99.90;;;;;;4975751;28;20385;-87
2022/05/22 10:39:19;;;;;;;4.65;1.90;;;14.20;99.90;;;;;;5024333;28;20481;-87
2022/05/22 10:45:18;;;;;;;5.32;2.92;;;14.30;99.90;;;;;;5024181;28;20368;-87
2022/05/22 10:47:45;;;;;;;4.38;2.30;;;14.30;99.90;;;;;;5066328;28;20942;-87
2022/05/22 10:50:30;;;;;;;5.35;2.70;;;14.30;99.90;;;;;;5066396;28;20386;-87
2022/05/22 10:52:57;;;;;;;2.95;1.90;;;14.30;99.90;;;;;;5066289;28;20939;-86
2022/05/22 10:55:46;;;;;;;3.40;1.73;;;14.30;99.90;;;;;;5066320;28;20382;-87
2022/05/22 10:58:28;;;;;;;2.80;2.10;;;14.30;99.90;;;;;;5066188;28;20496;-87
2022/05/22 11:01:06;;;;;;;3.53;1.40;;;14.30;99.90;;;;;;5066153;28;20382;-87
2022/05/22 11:03:35;;;;;;;3.47;1.23;;;14.30;99.90;;;;;;5068178;28;20773;-87
2022/05/22 11:06:15;;;;;;;3.63;1.30;;;14.20;99.90;;;;;;5069865;28;20464;-87
2022/05/22 11:08:49;;;;;;;1.90;1.07;;;14.20;99.90;;;;;;5069991;28;20375;-86
2022/05/22 11:11:37;;;;;;;2.28;1.08;;;14.20;99.90;;;;;;5070077;28;20396;-88
2022/05/22 11:14:11;;;;;;;2.15;1.10;;;14.20;99.90;;;;;;5070046;28;20374;-87
2022/05/22 11:16:39;;;;;;;3.53;1.15;;;14.20;99.90;;;;;;5069775;28;20449;-87
2022/05/22 11:19:11;;;;;;;2.83;1.20;;;14.20;99.90;;;;;;5069768;28;20882;-87
2022/05/22 11:21:56;;;;;;;2.67;1.20;;;14.20;99.90;;;;;;5069611;28;20375;-86
2022/05/22 11:24:30;;;;;;;4.15;1.45;;;14.10;99.90;;;;;;5051555;28;20386;-87
2022/05/22 11:27:19;;;;;;;3.75;1.85;;;14.10;99.90;;;;;;5051411;28;20386;-87
2022/05/22 11:30:05;;;;;;;3.38;1.80;;;14.10;99.90;;;;;;5051608;28;21063;-88
2022/05/22 11:32:50;;;;;;;2.78;1.50;;;14.00;99.90;;;;;;5069342;28;20385;-86
2022/05/22 11:35:35;;;;;;;2.42;1.50;;;14.00;99.90;;;;;;5085249;28;20411;-86
2022/05/22 11:38:31;;;;;;;5.05;1.50;;;13.90;99.90;;;;;;5089699;28;20407;-87
2022/05/22 11:41:27;;;;;;;4.45;1.73;;;13.90;99.90;;;;;;5088045;28;20369;-88
2022/05/22 11:44:03;;;;;;;3.70;1.80;;;13.90;99.90;;;;;;5088270;28;20398;-86
2022/05/22 11:47:08;;;;;;;3.22;1.70;;;13.90;99.90;;;;;;5089535;28;20365;-86
2022/05/22 11:50:15;;;;;;;3.70;1.88;;;13.80;99.90;;;;;;5030079;28;20383;-87
2022/05/22 11:53:13;;;;;;;3.60;1.60;;;13.80;99.90;;;;;;5046911;28;20380;-86
2022/05/22 11:56:03;;;;;;;2.80;1.40;;;13.70;99.90;;;;;;5030056;28;20406;-86
2022/05/22 11:58:50;;;;;;;2.28;1.30;;;13.70;99.90;;;;;;5046716;28;20442;-86
2022/05/22 12:01:23;;;;;;;2.97;1.20;;;13.60;99.90;;;;;;5046558;28;20463;-87
2022/05/22 12:04:22;;;;;;;3.55;1.30;;;13.60;99.90;;;;;;5046461;28;20830;-86
2022/05/22 12:07:25;;;;;;;2.30;1.20;;;13.50;99.90;;;;;;5046468;28;20382;-88
2022/05/22 12:10:13;;;;;;;1.98;1.10;;;13.50;99.90;;;;;;5046433;28;20445;-86
2022/05/22 12:13:01;;;;;;;2.50;1.20;;;13.50;99.90;;;;;;5046413;28;21345;-86
2022/05/22 12:15:46;;;;;;;2.65;1.20;;;13.50;99.90;;;;;;5045641;28;20384;-86
2022/05/22 12:18:13;;;;;;;2.83;1.25;;;13.40;99.90;;;;;;5046569;28;20907;-87
2022/05/22 12:20:55;;;;;;;1.20;1.10;;;13.40;99.90;;;;;;5046418;28;20861;-87
2022/05/22 12:24:13;;;;;;;3.23;1.10;;;13.40;99.90;;;;;;5046376;28;20376;-86
2022/05/22 12:26:41;;;;;;;2.25;1.10;;;13.30;99.90;;;;;;5030343;28;20887;-87
2022/05/22 12:29:13;;;;;;;1.60;1.10;;;13.30;99.90;;;;;;5046377;28;20376;-86
2022/05/22 12:31:54;;;;;;;2.53;1.10;;;13.30;99.90;;;;;;5046339;28;20400;-86
2022/05/22 12:34:36;;;;;;;2.05;1.30;;;13.20;99.90;;;;;;5046032;28;20472;-87
2022/05/22 12:37:09;;;;;;;2.25;1.10;;;13.10;99.90;;;;;;5045820;28;20394;-87
2022/05/22 12:39:47;;;;;;;2.10;1.07;;;13.10;99.90;;;;;;5046170;28;20868;-87
2022/05/22 12:42:33;;;;;;;1.98;1.10;;;13.10;99.90;;;;;;5045982;28;20394;-87
2022/05/22 12:45:01;;;;;;;2.38;1.80;;;13.10;99.90;;;;;;5045894;28;21216;-86
2022/05/22 12:47:45;;;;;;;3.40;1.40;;;13.10;99.90;;;;;;5045896;28;20463;-87
2022/05/22 12:50:24;;;;;;;2.33;1.30;;;13.10;99.90;;;;;;5045819;28;20386;-88
2022/05/22 12:52:54;;;;;;;2.83;1.30;;;13.10;99.90;;;;;;5045870;28;20389;-86
2022/05/22 12:55:29;;;;;;;2.42;1.30;;;13.10;99.90;;;;;;5045720;28;20410;-87
2022/05/22 12:58:02;;;;;;;1.77;1.40;;;12.90;99.90;;;;;;5045642;28;20445;-86
2022/05/22 13:00:36;;;;;;;1.85;1.00;;;12.90;99.90;;;;;;5045726;28;20868;-86
2022/05/22 13:03:14;;;;;;;1.88;1.10;;;12.70;99.90;;;;;;5066190;28;20938;-86
2022/05/22 13:05:47;;;;;;;1.53;0.80;;;12.70;99.90;;;;;;5087989;28;20442;-86
2022/05/22 13:08:21;;;;;;;2.72;0.90;;;12.60;99.90;;;;;;5086620;28;20396;-86
2022/05/22 13:10:54;;;;;;;0.77;0.75;;;12.50;99.90;;;;;;5088737;28;20368;-87
2022/05/22 13:13:32;;;;;;;2.60;0.90;;;12.50;99.90;;;;;;5088056;28;20368;-86
2022/05/22 13:16:07;;;;;;;2.45;0.95;;;12.40;99.90;;;;;;5087882;28;20461;-86
2022/05/22 13:18:46;;;;;;;1.80;0.90;;;12.40;99.90;;;;;;5087898;28;20418;-86
2022/05/22 13:21:40;;;;;;;1.10;0.82;;;12.30;99.90;;;;;;5087790;28;20371;-86
2022/05/22 13:24:31;;;;;;;1.10;0.82;;;12.30;99.90;;;;;;5087719;28;20387;-86
2022/05/22 13:27:00;;;;;;;2.38;1.10;;;12.20;99.90;;;;;;5086082;28;20380;-86
2022/05/22 13:29:42;;;;;;;2.85;1.00;;;12.20;99.90;;;;;;5087414;28;20752;-86
2022/05/22 13:32:17;;;;;;;1.98;1.00;;;12.20;99.90;;;;;;5087538;28;20372;-86
2022/05/22 13:34:50;;;;;;;3.38;1.08;;;12.30;99.90;;;;;;5087462;28;20859;-86
2022/05/22 13:37:30;;;;;;;2.10;1.20;;;12.30;99.90;;;;;;5087441;28;20471;-87
2022/05/22 13:40:05;;;;;;;2.53;1.10;;;12.20;99.90;;;;;;5087455;28;20379;-86